Terminal Aerodrome Forecast
Issued by NWS Sterling, VA

Current Version | Previous Version | Text Only | Print | Product List | Glossary On
Versions: 1 2 3 4 5 6 7 8 9 10 11 12 13 14 15 16 17
000
FTUS41 KLWX 232300
TAFCHO
TAF
KCHO 232320Z 2400/2424 VRB03KT P6SM VCTS BKN040CB BKN080
      TEMPO 2400/2401 27025G35KT 1SM TSRA BKN020CB
     FM240200 VRB03KT P6SM BKN040 BKN080
     FM241600 36006KT 6SM -SHRA OVC040
     FM242200 02004KT P6SM OVC040=

USA.gov is the U.S. government's official web portal to all federal, state and local government web resources and services.